Time;durP1;ratioP1;P1;durP2;ratioP2;P2;SDS_P1;SDS_P2;PMS_P1;PMS_P2;Temp;Humidity;BMP_temperature;BMP_pressure;BME280_temperature;BME280_humidity;BME280_pressure;Samples;Min_cycle;Max_cycle;Signal;HPM_P1;HPM_P2
2022/10/03 00:02:17;;;;;;;14.27;2.97;;;;;;;13.55;62.46;100580.69;5113382;28;20083;-61
2022/10/03 00:05:02;;;;;;;10.32;2.78;;;;;;;13.48;63.12;100586.38;5113518;28;20051;-63
2022/10/03 00:08:07;;;;;;;10.50;2.50;;;;;;;13.45;63.16;100591.81;5113379;28;20556;-60
2022/10/03 00:10:37;;;;;;;14.02;2.97;;;;;;;13.46;62.36;100589.06;5113224;28;20495;-62
2022/10/03 00:13:50;;;;;;;12.95;2.28;;;;;;;13.39;63.41;100596.50;5113160;28;20101;-61
2022/10/03 00:16:40;;;;;;;11.63;2.70;;;;;;;13.40;63.01;100587.66;5102790;28;20483;-60
2022/10/03 00:19:41;;;;;;;14.52;2.83;;;;;;;13.37;63.71;100592.22;5105612;28;20078;-61
2022/10/03 00:22:20;;;;;;;10.43;2.80;;;;;;;13.38;62.84;100599.25;5113257;28;20093;-62
2022/10/03 00:25:28;;;;;;;17.13;2.53;;;;;;;13.32;63.92;100603.06;5113311;28;20483;-62
2022/10/03 00:28:12;;;;;;;10.93;2.15;;;;;;;13.31;63.75;100603.16;5112961;28;20090;-60
2022/10/03 00:31:00;;;;;;;27.58;3.50;;;;;;;13.29;63.93;100609.38;5113064;28;20039;-61
2022/10/03 00:33:49;;;;;;;12.65;2.30;;;;;;;13.31;63.26;100606.66;5112859;28;20043;-61
2022/10/03 00:36:54;;;;;;;15.20;2.25;;;;;;;13.26;64.19;100619.25;5111933;28;20052;-63
2022/10/03 00:39:26;;;;;;;11.35;2.33;;;;;;;13.26;64.08;100611.34;5110889;28;20059;-63
2022/10/03 00:42:05;;;;;;;12.13;2.90;;;;;;;13.23;64.21;100615.00;5112606;28;20043;-61
2022/10/03 00:44:42;;;;;;;9.80;2.28;;;;;;;13.25;64.33;100622.84;5112721;28;20419;-61
2022/10/03 00:47:21;;;;;;;11.18;2.40;;;;;;;13.22;64.64;100623.00;5112563;28;20043;-62
2022/10/03 00:49:59;;;;;;;21.88;2.88;;;;;;;13.21;64.45;100621.31;5112469;28;20071;-63
2022/10/03 00:52:38;;;;;;;10.07;2.45;;;;;;;13.19;64.68;100623.19;5112852;28;20182;-62
2022/10/03 00:55:26;;;;;;;15.50;2.92;;;;;;;13.16;64.73;100621.56;5111464;28;20075;-63
2022/10/03 00:58:15;;;;;;;7.90;2.13;;;;;;;13.14;64.84;100629.59;5112542;28;20048;-60
2022/10/03 01:00:49;;;;;;;12.10;2.33;;;;;;;13.14;64.40;100632.22;5112276;28;20090;-61
2022/10/03 01:03:27;;;;;;;14.55;2.60;;;;;;;13.11;64.82;100637.66;5112532;28;20055;-63
2022/10/03 01:06:45;;;;;;;7.47;1.95;;;;;;;13.08;64.73;100637.81;5112536;28;20169;-60
2022/10/03 01:09:26;;;;;;;9.38;2.20;;;;;;;13.09;64.94;100638.69;5087595;28;20047;-61
2022/10/03 01:12:20;;;;;;;8.52;2.03;;;;;;;13.08;64.95;100652.84;5111147;28;20052;-62
2022/10/03 01:14:56;;;;;;;11.57;2.10;;;;;;;13.09;63.99;100644.81;5110602;28;20564;-60
2022/10/03 01:17:55;;;;;;;9.98;2.60;;;;;;;13.05;65.15;100650.34;5112052;28;20078;-62
2022/10/03 01:20:46;;;;;;;12.48;2.80;;;;;;;13.02;65.06;100643.44;5095264;28;20138;-62
2022/10/03 01:23:12;;;;;;;11.48;2.25;;;;;;;13.06;64.15;100649.41;5112495;28;20483;-60
2022/10/03 01:26:35;;;;;;;6.95;2.08;;;;;;;12.98;65.01;100647.19;5111928;28;20094;-62
2022/10/03 01:32:04;;;;;;;12.82;2.70;;;;;;;12.98;65.22;100649.84;5111794;28;20051;-63
2022/10/03 01:34:37;;;;;;;14.18;2.55;;;;;;;12.96;65.18;100649.03;5111627;28;20147;-60
2022/10/03 01:37:21;;;;;;;9.48;2.53;;;;;;;12.93;65.51;100646.59;5111841;28;20051;-61
2022/10/03 01:40:25;;;;;;;10.13;2.38;;;;;;;12.92;65.51;100643.06;5111399;28;20047;-61
2022/10/03 01:43:13;;;;;;;7.85;1.92;;;;;;;12.93;65.06;100650.06;5111685;28;20047;-60
2022/10/03 01:46:07;;;;;;;8.55;2.28;;;;;;;12.91;65.41;100657.22;5111407;28;20138;-61
2022/10/03 01:48:59;;;;;;;8.23;2.53;;;;;;;12.88;65.73;100658.25;5111240;28;20137;-62
2022/10/03 01:51:26;;;;;;;11.90;2.75;;;;;;;12.91;64.71;100657.22;5111607;28;20470;-61
2022/10/03 01:54:18;;;;;;;10.05;2.80;;;;;;;12.90;64.72;100666.94;5111664;28;20106;-61
2022/10/03 01:57:11;;;;;;;9.48;2.40;;;;;;;12.85;65.89;100661.03;5109156;28;20055;-61
2022/10/03 01:59:44;;;;;;;7.10;2.20;;;;;;;12.87;65.74;100667.09;5111363;28;20071;-60
2022/10/03 02:02:47;;;;;;;5.85;2.10;;;;;;;12.84;65.87;100667.28;5111511;28;20051;-61
2022/10/03 02:05:24;;;;;;;12.88;3.13;;;;;;;12.84;65.91;100666.41;5111221;28;20043;-63
2022/10/03 02:07:59;;;;;;;14.40;2.85;;;;;;;12.84;65.67;100675.19;5110122;28;20048;-61
2022/10/03 02:11:01;;;;;;;10.73;2.88;;;;;;;12.79;66.38;100677.22;5111099;28;20052;-63
2022/10/03 02:13:42;;;;;;;8.77;2.50;;;;;;;12.81;66.42;100678.00;5088470;28;20055;-61
2022/10/03 02:16:14;;;;;;;14.10;2.92;;;;;;;12.81;66.26;100680.63;5111129;28;20043;-61
2022/10/03 02:18:54;;;;;;;7.63;2.15;;;;;;;12.80;66.22;100681.56;5111330;28;20099;-62
2022/10/03 02:21:25;;;;;;;13.77;2.47;;;;;;;12.81;65.74;100677.13;5110794;28;20102;-61
2022/10/03 02:24:17;;;;;;;9.43;2.78;;;;;;;12.79;66.53;100679.88;5111095;28;20083;-60
2022/10/03 02:26:46;;;;;;;16.23;2.97;;;;;;;12.81;65.58;100680.63;5111285;28;20355;-60
2022/10/03 02:29:38;;;;;;;10.93;2.67;;;;;;;12.79;66.37;100685.16;5110780;28;20117;-60
2022/10/03 02:32:23;;;;;;;11.77;3.15;;;;;;;12.76;66.61;100685.31;5110956;28;20052;-60
2022/10/03 02:35:13;;;;;;;11.50;3.38;;;;;;;12.74;66.66;100684.50;5111124;28;20086;-61
2022/10/03 02:37:47;;;;;;;12.55;4.22;;;;;;;12.79;65.45;100689.56;5110896;28;20075;-60
2022/10/03 02:40:28;;;;;;;11.98;4.30;;;;;;;12.75;66.00;100683.59;5109949;28;20090;-60
2022/10/03 02:43:51;;;;;;;10.40;4.45;;;;;;;12.72;66.43;100687.25;5110411;28;20522;-60
2022/10/03 02:47:16;;;;;;;11.90;4.13;;;;;;;12.71;66.63;100685.53;5067277;28;20091;-60
2022/10/03 02:50:01;;;;;;;11.60;3.78;;;;;;;12.75;65.48;100691.53;4964087;28;20055;-61
2022/10/03 02:53:06;;;;;;;9.73;3.95;;;;;;;12.69;66.59;100692.69;4999072;28;20109;-61
2022/10/03 02:56:10;;;;;;;14.02;4.57;;;;;;;12.67;66.57;100699.81;5092588;28;20121;-60
2022/10/03 02:59:14;;;;;;;15.63;4.03;;;;;;;12.66;66.83;100694.59;5110508;28;20484;-61
2022/10/03 03:01:51;;;;;;;11.45;3.90;;;;;;;12.66;66.64;100694.59;5110681;28;20085;-62
2022/10/03 03:04:55;;;;;;;11.18;4.05;;;;;;;12.63;66.87;100696.50;5109651;28;20167;-62
2022/10/03 03:07:37;;;;;;;10.85;4.30;;;;;;;12.62;66.91;100686.88;5109115;28;20087;-60
2022/10/03 03:10:19;;;;;;;14.80;5.07;;;;;;;12.62;66.95;100700.06;5110763;28;20055;-64
2022/10/03 03:13:07;;;;;;;17.13;5.55;;;;;;;12.61;66.89;100693.09;5110588;28;20090;-61
2022/10/03 03:15:58;;;;;;;12.73;4.68;;;;;;;12.60;66.91;100701.09;5110644;28;20083;-62
2022/10/03 03:18:33;;;;;;;12.40;4.60;;;;;;;12.59;66.94;100705.50;5110295;28;20143;-60
2022/10/03 03:21:22;;;;;;;10.23;4.68;;;;;;;12.57;67.46;100699.44;5110799;28;20055;-64
2022/10/03 03:24:04;;;;;;;9.38;4.38;;;;;;;12.59;66.81;100694.94;5109440;28;20052;-61
2022/10/03 03:26:52;;;;;;;12.73;3.78;;;;;;;12.56;67.42;100702.16;5110818;28;20047;-61
2022/10/03 03:29:43;;;;;;;9.60;4.00;;;;;;;12.57;67.11;100704.72;5110123;28;20043;-62
2022/10/03 03:32:51;;;;;;;9.95;4.13;;;;;;;12.54;67.43;100711.94;5110681;28;20473;-62
2022/10/03 03:35:45;;;;;;;10.13;4.07;;;;;;;12.56;66.95;100708.28;5114256;28;20079;-61
2022/10/03 03:38:33;;;;;;;17.25;4.72;;;;;;;12.53;67.52;100710.22;5107022;28;20437;-61
2022/10/03 03:41:19;;;;;;;16.23;3.88;;;;;;;12.54;67.25;100714.56;5112684;28;20059;-63
2022/10/03 03:44:24;;;;;;;11.48;4.13;;;;;;;12.51;67.68;100719.09;5114119;28;20086;-64
2022/10/03 03:47:29;;;;;;;11.82;3.58;;;;;;;12.50;67.48;100719.16;5113965;28;20446;-62
2022/10/03 03:50:06;;;;;;;11.02;3.28;;;;;;;12.53;67.36;100720.78;5113885;28;20104;-62
2022/10/03 03:52:48;;;;;;;9.23;3.30;;;;;;;12.51;67.43;100719.09;5114143;28;20108;-61
2022/10/03 03:55:33;;;;;;;12.38;3.55;;;;;;;12.49;67.55;100715.66;5113843;28;20120;-62
2022/10/03 03:58:39;;;;;;;8.88;3.30;;;;;;;12.49;67.59;100720.94;5113885;28;20087;-61
2022/10/03 04:01:37;;;;;;;10.38;3.42;;;;;;;12.49;67.51;100726.22;5081594;28;20047;-61
2022/10/03 04:04:43;;;;;;;7.47;3.38;;;;;;;12.52;67.00;100722.56;5113474;28;20063;-61
2022/10/03 04:07:31;;;;;;;8.45;3.53;;;;;;;12.49;67.47;100730.66;5070172;28;20113;-60
2022/10/03 04:10:31;;;;;;;9.00;3.00;;;;;;;12.48;67.43;100728.94;5110769;28;20138;-61
2022/10/03 04:13:19;;;;;;;8.73;2.55;;;;;;;12.50;66.98;100729.72;5113583;28;20045;-61
2022/10/03 04:16:12;;;;;;;9.30;3.20;;;;;;;12.46;67.25;100730.81;5113323;28;20055;-61
2022/10/03 04:18:57;;;;;;;9.40;2.97;;;;;;;12.47;66.77;100732.50;5113215;28;20051;-61
2022/10/03 04:21:27;;;;;;;9.00;3.15;;;;;;;12.46;67.12;100728.16;5113249;28;20146;-62
2022/10/03 04:24:20;;;;;;;13.48;4.18;;;;;;;12.40;67.68;100724.03;5113309;28;20094;-61
2022/10/03 04:27:24;;;;;;;9.73;4.00;;;;;;;12.38;67.63;100718.84;5093569;28;20144;-61
2022/10/03 04:30:22;;;;;;;16.17;3.92;;;;;;;12.39;67.64;100722.34;5112898;28;20605;-60
2022/10/03 04:33:00;;;;;;;10.88;4.25;;;;;;;12.42;67.37;100723.97;5113006;28;20152;-61
2022/10/03 04:36:05;;;;;;;9.07;3.88;;;;;;;12.39;67.87;100727.63;5112910;28;20047;-60
2022/10/03 04:38:59;;;;;;;13.25;5.25;;;;;;;12.37;67.96;100727.69;5112846;28;20087;-62
2022/10/03 04:41:44;;;;;;;12.68;5.43;;;;;;;12.36;67.92;100731.28;5112533;28;20083;-60
2022/10/03 04:44:38;;;;;;;12.40;4.82;;;;;;;12.40;67.95;100741.69;5111773;28;20087;-60
2022/10/03 04:47:25;;;;;;;10.73;5.40;;;;;;;12.39;68.19;100746.09;5112628;28;20534;-62
2022/10/03 04:49:55;;;;;;;24.45;5.55;;;;;;;12.43;67.16;100738.88;5112547;28;20090;-60
2022/10/03 04:52:38;;;;;;;13.68;4.25;;;;;;;12.39;68.21;100738.19;5111507;28;20040;-60
2022/10/03 04:55:05;;;;;;;;;;;;;;;12.43;67.76;100738.88;5113268;28;20047;-61
2022/10/03 04:57:53;;;;;;;11.90;3.70;;;;;;;12.44;67.91;100746.72;5112497;28;19992;-60
2022/10/03 05:00:40;;;;;;;11.80;4.50;;;;;;;12.43;68.31;100744.16;5112085;28;20500;-63
2022/10/03 05:03:25;;;;;;;10.85;4.07;;;;;;;12.45;67.54;100747.59;5112575;28;20047;-61
2022/10/03 05:06:16;;;;;;;8.82;3.90;;;;;;;12.41;68.11;100751.31;5112239;28;20052;-62
2022/10/03 05:08:49;;;;;;;12.82;3.65;;;;;;;12.42;67.79;100750.38;5112070;28;20073;-61
2022/10/03 05:11:44;;;;;;;6.95;3.45;;;;;;;12.38;68.14;100750.50;5110865;28;20073;-61
2022/10/03 05:14:55;;;;;;;8.05;3.70;;;;;;;12.39;67.83;100756.66;5112426;28;20128;-61
2022/10/03 05:17:36;;;;;;;14.35;3.75;;;;;;;12.40;67.52;100754.88;5068634;28;20477;-61
2022/10/03 05:20:33;;;;;;;9.48;3.35;;;;;;;12.37;67.90;100758.50;5068730;28;20087;-62
2022/10/03 05:23:23;;;;;;;12.18;3.58;;;;;;;12.37;67.61;100754.09;5104237;28;20420;-60
2022/10/03 05:26:03;;;;;;;14.90;3.28;;;;;;;12.36;67.86;100757.66;5112095;28;20086;-60
2022/10/03 05:29:02;;;;;;;7.07;2.75;;;;;;;12.36;67.71;100765.59;5112110;28;20047;-60
2022/10/03 05:31:29;;;;;;;11.20;3.70;;;;;;;12.37;67.34;100758.50;5110930;28;20044;-61
2022/10/03 05:34:03;;;;;;;11.20;3.45;;;;;;;12.35;67.68;100761.25;5111202;28;20460;-60
2022/10/03 05:36:49;;;;;;;13.80;3.63;;;;;;;12.33;68.36;100775.41;5108874;27;20131;-61
2022/10/03 05:39:22;;;;;;;10.60;3.60;;;;;;;12.34;67.91;100762.16;5110023;28;20141;-60
2022/10/03 05:42:00;;;;;;;9.68;2.90;;;;;;;12.34;67.86;100770.06;5110400;28;20108;-61
2022/10/03 05:45:05;;;;;;;8.52;3.30;;;;;;;12.34;68.11;100775.34;5111340;27;20354;-64
2022/10/03 05:47:54;;;;;;;13.45;5.25;;;;;;;12.32;68.12;100776.34;5110652;28;20561;-60
2022/10/03 05:50:42;;;;;;;11.60;5.38;;;;;;;12.35;67.77;100781.50;5110573;28;20151;-61
2022/10/03 05:53:30;;;;;;;13.15;5.85;;;;;;;12.34;67.70;100785.91;5110869;28;20077;-62
2022/10/03 05:56:21;;;;;;;16.67;5.43;;;;;;;12.32;68.21;100777.22;5109964;28;20457;-59
2022/10/03 05:59:06;;;;;;;11.55;5.90;;;;;;;12.32;68.19;100779.88;5111052;28;20134;-59
2022/10/03 06:01:44;;;;;;;14.13;5.90;;;;;;;12.36;68.07;100783.22;5111473;28;20096;-62
2022/10/03 06:04:20;;;;;;;10.93;5.10;;;;;;;12.34;68.24;100785.91;5111285;28;20120;-65
2022/10/03 06:06:52;;;;;;;8.85;5.25;;;;;;;12.36;68.19;100789.34;5111139;28;20089;-60
2022/10/03 06:09:43;;;;;;;13.93;5.85;;;;;;;12.37;68.55;100792.84;5109964;28;20087;-62
2022/10/03 06:12:24;;;;;;;18.90;6.03;;;;;;;12.42;68.14;100796.13;5111315;28;20040;-62
2022/10/03 06:15:09;;;;;;;10.23;5.25;;;;;;;12.45;67.79;100793.31;5111101;28;20483;-62
2022/10/03 06:18:00;;;;;;;10.55;5.65;;;;;;;12.47;68.18;100799.41;5110072;27;20448;-64
2022/10/03 06:21:04;;;;;;;11.63;6.97;;;;;;;12.46;68.43;100792.41;5110946;28;20047;-61
2022/10/03 06:23:30;;;;;;;22.73;6.38;;;;;;;12.53;67.67;100800.03;5110932;28;20047;-62
2022/10/03 06:26:13;;;;;;;28.55;7.70;;;;;;;12.50;68.47;100807.19;5111249;28;20048;-61
2022/10/03 06:29:21;;;;;;;13.18;6.53;;;;;;;12.53;68.62;100808.81;5109928;28;20091;-64
2022/10/03 06:32:11;;;;;;;11.65;5.95;;;;;;;12.57;68.38;100806.88;5106847;28;20108;-61
2022/10/03 06:35:16;;;;;;;9.30;6.25;;;;;;;12.58;68.44;100805.94;5110549;28;20079;-63
2022/10/03 06:38:24;;;;;;;18.80;7.15;;;;;;;12.61;68.69;100811.94;5110743;28;20573;-62
2022/10/03 06:41:03;;;;;;;9.65;6.90;;;;;;;12.68;68.05;100809.84;5108882;28;20096;-62
2022/10/03 06:44:00;;;;;;;12.20;7.50;;;;;;;12.69;68.87;100808.06;5110382;28;20502;-61
2022/10/03 06:46:45;;;;;;;13.65;6.18;;;;;;;12.72;68.71;100813.19;5110518;28;20070;-62
2022/10/03 06:49:28;;;;;;;14.93;7.10;;;;;;;12.77;68.16;100808.53;5111283;28;20101;-63
2022/10/03 06:52:03;;;;;;;12.52;6.78;;;;;;;12.78;68.77;100820.81;5108375;28;20152;-65
2022/10/03 06:55:23;;;;;;;14.55;7.05;;;;;;;12.79;68.94;100817.25;5118515;28;20047;-62
2022/10/03 06:58:27;;;;;;;10.35;5.80;;;;;;;12.83;68.82;100813.53;5113811;28;20079;-62
2022/10/03 07:01:11;;;;;;;15.57;6.38;;;;;;;12.87;68.69;100825.63;5103408;28;20036;-62
2022/10/03 07:04:29;;;;;;;13.90;6.72;;;;;;;12.86;68.84;100823.94;5110720;28;20062;-62
2022/10/03 07:07:31;;;;;;;17.90;6.90;;;;;;;12.88;68.84;100822.06;5087224;28;20124;-60
2022/10/03 07:10:28;;;;;;;14.68;6.50;;;;;;;12.90;68.93;100830.78;5100892;28;20051;-62
2022/10/03 07:13:23;;;;;;;14.82;7.50;;;;;;;12.92;69.00;100830.69;5114553;28;20495;-61
2022/10/03 07:16:24;;;;;;;15.73;7.78;;;;;;;12.93;69.26;100840.34;5114536;28;20060;-62
2022/10/03 07:19:21;;;;;;;17.05;6.63;;;;;;;12.95;69.12;100835.84;5114455;28;20055;-63
2022/10/03 07:22:00;;;;;;;15.40;6.90;;;;;;;12.99;69.03;100834.75;5113090;28;20453;-63
2022/10/03 07:24:40;;;;;;;14.95;6.65;;;;;;;13.01;69.51;100848.75;5114481;28;20097;-61
2022/10/03 07:27:26;;;;;;;12.65;6.82;;;;;;;13.05;69.61;100843.31;5114150;28;20105;-60
2022/10/03 07:30:10;;;;;;;12.73;6.13;;;;;;;13.11;69.45;100846.50;5113990;28;20059;-62
2022/10/03 07:33:05;;;;;;;13.40;6.30;;;;;;;13.15;70.57;100856.00;5113173;28;20086;-61
2022/10/03 07:38:57;;;;;;;13.57;5.35;;;;;;;13.40;69.92;100852.09;5113920;28;20100;-63
2022/10/03 07:41:32;;;;;;;10.80;4.55;;;;;;;13.50;69.78;100852.50;5114186;27;20048;-62
2022/10/03 07:44:05;;;;;;;11.63;4.70;;;;;;;13.60;69.79;100854.69;5114198;28;20104;-61
2022/10/03 07:46:40;;;;;;;10.43;4.25;;;;;;;13.66;70.04;100859.66;5112657;28;20089;-61
2022/10/03 07:49:26;;;;;;;10.40;3.83;;;;;;;13.74;70.04;100864.53;5112527;28;20104;-62
2022/10/03 07:52:25;;;;;;;13.38;3.50;;;;;;;13.83;69.82;100861.38;5112296;28;20071;-63
2022/10/03 07:55:42;;;;;;;7.80;3.70;;;;;;;13.90;69.45;100862.78;5112217;28;20096;-62
2022/10/03 07:58:36;;;;;;;10.80;3.00;;;;;;;13.97;69.04;100868.59;5068578;28;20132;-61
2022/10/03 08:01:34;;;;;;;8.32;3.30;;;;;;;14.01;69.03;100864.84;5111460;28;20104;-61
2022/10/03 08:04:24;;;;;;;6.07;2.97;;;;;;;14.06;69.01;100872.56;5111920;28;20104;-61
2022/10/03 08:07:13;;;;;;;6.75;2.97;;;;;;;14.12;68.94;100877.50;5112816;28;20081;-62
2022/10/03 08:10:15;;;;;;;10.50;3.75;;;;;;;14.13;68.85;100888.97;5113352;28;20553;-61
2022/10/03 08:13:23;;;;;;;11.27;3.55;;;;;;;14.15;68.47;100881.78;5077522;28;20491;-62
2022/10/03 08:16:04;;;;;;;15.40;3.30;;;;;;;14.19;68.38;100884.19;5107806;28;20082;-61
2022/10/03 08:18:59;;;;;;;8.05;3.13;;;;;;;14.19;68.50;100893.94;5111663;28;20147;-62
2022/10/03 08:21:49;;;;;;;9.05;3.28;;;;;;;14.24;67.96;100898.97;5113051;28;20048;-61
2022/10/03 08:24:53;;;;;;;10.00;2.75;;;;;;;14.20;68.50;100898.28;5093175;28;20051;-62
2022/10/03 08:27:42;;;;;;;8.40;2.95;;;;;;;14.23;68.74;100902.53;5113075;28;20486;-61
2022/10/03 08:30:13;;;;;;;10.98;2.92;;;;;;;14.28;68.61;100898.72;5112994;28;20055;-61
2022/10/03 08:32:56;;;;;;;5.40;2.42;;;;;;;14.28;68.79;100909.31;5112835;28;20040;-62
2022/10/03 08:35:47;;;;;;;8.10;3.20;;;;;;;14.31;69.07;100903.84;5111935;28;20087;-62
2022/10/03 08:38:32;;;;;;;9.10;2.72;;;;;;;14.36;68.96;100900.97;5112864;28;20467;-61
2022/10/03 08:41:16;;;;;;;7.65;2.40;;;;;;;14.44;68.49;100901.38;5112779;28;20578;-61
2022/10/03 08:43:52;;;;;;;7.03;2.42;;;;;;;14.46;68.70;100901.28;5112761;28;20484;-61
2022/10/03 08:46:40;;;;;;;9.85;2.80;;;;;;;14.50;68.80;100899.34;5112941;28;20048;-64
2022/10/03 08:49:43;;;;;;;8.93;2.22;;;;;;;14.55;68.80;100900.78;5112479;28;20096;-61
2022/10/03 08:52:22;;;;;;;7.03;2.53;;;;;;;14.65;68.68;100895.84;5112961;28;20050;-60
2022/10/03 08:55:01;;;;;;;11.15;2.65;;;;;;;14.71;68.28;100906.09;5112887;28;20089;-62
2022/10/03 08:57:59;;;;;;;8.55;2.20;;;;;;;14.73;68.52;100904.22;5112548;28;20056;-63
2022/10/03 09:00:54;;;;;;;8.35;1.83;;;;;;;14.81;68.56;100898.50;5112644;28;20079;-63
2022/10/03 09:03:37;;;;;;;8.70;2.00;;;;;;;14.90;68.35;100899.78;5092508;27;20135;-64
2022/10/03 09:06:23;;;;;;;7.00;1.95;;;;;;;14.96;68.46;100906.53;5112271;28;20058;-62
2022/10/03 09:09:04;;;;;;;10.10;2.28;;;;;;;15.01;68.42;100907.13;5112278;28;20056;-62
2022/10/03 09:11:31;;;;;;;7.68;2.40;;;;;;;15.09;68.46;100911.97;5112530;28;20079;-61
2022/10/03 09:14:03;;;;;;;9.65;2.00;;;;;;;15.17;68.23;100916.88;5112213;28;20048;-63
2022/10/03 09:16:43;;;;;;;6.47;1.77;;;;;;;15.21;68.04;100910.41;5112205;28;20083;-62
2022/10/03 09:19:26;;;;;;;11.40;2.13;;;;;;;15.28;68.12;100913.59;5112161;28;20368;-63
2022/10/03 09:22:01;;;;;;;11.63;2.28;;;;;;;15.36;67.75;100908.66;5112074;28;20098;-62
2022/10/03 09:25:02;;;;;;;8.27;1.98;;;;;;;15.43;67.82;100907.38;5111856;28;20552;-62
2022/10/03 09:27:49;;;;;;;12.68;2.10;;;;;;;15.50;67.79;100911.38;5111651;28;20051;-61
2022/10/03 09:30:29;;;;;;;8.88;2.15;;;;;;;15.59;67.65;100907.31;5111025;28;20491;-62
2022/10/03 09:33:21;;;;;;;9.07;1.92;;;;;;;15.67;67.36;100914.81;5111885;28;20082;-62
2022/10/03 09:36:03;;;;;;;7.82;1.77;;;;;;;15.74;67.47;100916.16;5111965;28;20048;-61
2022/10/03 09:39:28;;;;;;;8.07;1.63;;;;;;;15.80;66.92;100914.06;5111798;28;20097;-61
2022/10/03 09:42:26;;;;;;;6.43;1.80;;;;;;;15.90;66.88;100909.91;5068541;28;20589;-61
2022/10/03 09:45:14;;;;;;;7.93;1.83;;;;;;;16.00;66.79;100902.28;5068420;28;20145;-62
2022/10/03 09:48:03;;;;;;;7.00;1.70;;;;;;;16.08;66.75;100904.44;5104367;28;20051;-65
2022/10/03 09:51:01;;;;;;;4.53;1.25;;;;;;;16.19;66.47;100909.09;5111599;28;20055;-61
2022/10/03 09:53:58;;;;;;;8.18;2.05;;;;;;;16.30;66.48;100903.13;5111550;28;20114;-61
2022/10/03 09:56:25;;;;;;;8.00;1.95;;;;;;;16.44;66.41;100900.44;5111581;28;20096;-62
2022/10/03 09:59:10;;;;;;;7.68;1.42;;;;;;;16.49;65.36;100897.50;5111601;28;20059;-61
2022/10/03 10:01:40;;;;;;;10.07;1.88;;;;;;;16.62;66.18;100908.16;5110026;28;20077;-61
2022/10/03 10:04:35;;;;;;;12.30;1.77;;;;;;;16.68;65.44;100898.00;5111834;28;20059;-62
2022/10/03 10:07:36;;;;;;;5.55;1.13;;;;;;;16.84;64.99;100906.78;5111305;28;20043;-62
2022/10/03 10:10:40;;;;;;;5.55;1.55;;;;;;;16.97;65.20;100904.19;5111050;28;20097;-61
2022/10/03 10:13:25;;;;;;;6.97;1.52;;;;;;;17.14;64.75;100906.63;5111629;28;20117;-62
2022/10/03 10:16:13;;;;;;;5.95;1.38;;;;;;;17.30;64.83;100895.78;5110055;28;20474;-61
2022/10/03 10:19:02;;;;;;;5.90;1.10;;;;;;;17.49;63.84;100899.03;5111074;28;20043;-61
2022/10/03 10:21:28;;;;;;;6.60;1.67;;;;;;;17.71;65.26;100895.72;5111036;28;20130;-61
2022/10/03 10:24:13;;;;;;;5.70;1.45;;;;;;;17.88;63.87;100891.03;5111275;28;20135;-62
2022/10/03 10:27:34;;;;;;;8.07;1.63;;;;;;;18.10;62.83;100896.59;5110968;28;20050;-61
2022/10/03 10:30:21;;;;;;;10.45;1.75;;;;;;;18.31;62.93;100892.50;5067735;28;20489;-71
2022/10/03 10:33:02;;;;;;;4.50;1.20;;;;;;;18.49;62.96;100885.00;5111090;28;20475;-64
2022/10/03 10:36:05;;;;;;;7.43;1.35;;;;;;;18.62;62.65;100883.13;5111010;28;20154;-62
2022/10/03 10:39:05;;;;;;;5.22;1.42;;;;;;;18.80;61.59;100877.41;5110672;28;20048;-61
2022/10/03 10:41:54;;;;;;;4.97;1.40;;;;;;;19.00;62.33;100883.94;5111496;28;20287;-60
2022/10/03 10:45:05;;;;;;;5.22;1.55;;;;;;;19.13;60.93;100883.91;5115430;28;20087;-60
2022/10/03 10:47:50;;;;;;;5.85;1.38;;;;;;;19.23;59.02;100883.19;5115095;28;20051;-61
2022/10/03 10:50:35;;;;;;;5.25;1.15;;;;;;;19.26;58.66;100886.47;5114671;28;20134;-61
2022/10/03 10:53:08;;;;;;;5.45;1.27;;;;;;;19.30;57.50;100878.25;5115045;28;20094;-63
2022/10/03 10:55:53;;;;;;;6.13;1.50;;;;;;;19.28;57.90;100878.34;5115083;27;20052;-62
2022/10/03 10:58:56;;;;;;;4.55;1.17;;;;;;;19.27;57.55;100879.34;5114703;28;20162;-61
2022/10/03 11:01:29;;;;;;;;;;;;;;;19.31;59.36;100878.13;5115222;28;20107;-61
2022/10/03 11:03:56;;;;;;;4.57;0.95;;;;;;;19.36;59.04;100872.47;5114889;28;19923;-64
2022/10/03 11:07:15;;;;;;;8.35;1.48;;;;;;;19.25;57.21;100881.28;5114752;28;20051;-61
2022/10/03 11:10:01;;;;;;;6.28;1.67;;;;;;;19.19;57.67;100879.94;5097001;27;20075;-61
2022/10/03 11:12:39;;;;;;;10.07;1.40;;;;;;;19.14;56.75;100885.59;5114678;28;20083;-63
2022/10/03 11:15:25;;;;;;;6.80;1.60;;;;;;;19.02;56.21;100883.81;5114554;28;20085;-69
2022/10/03 11:18:07;;;;;;;5.22;1.25;;;;;;;18.96;56.32;100881.63;5114543;28;20082;-61
2022/10/03 11:20:42;;;;;;;5.78;1.20;;;;;;;18.89;56.56;100881.22;5114546;28;20044;-58
2022/10/03 11:23:15;;;;;;;3.97;1.27;;;;;;;18.88;57.00;100882.19;5114320;28;20518;-59
2022/10/03 11:26:35;;;;;;;5.00;1.50;;;;;;;18.80;56.84;100877.41;5114752;28;20198;-59
2022/10/03 11:29:05;;;;;;;4.50;0.90;;;;;;;18.87;58.06;100876.00;5106047;28;20051;-63
2022/10/03 11:31:57;;;;;;;2.97;1.15;;;;;;;18.89;56.70;100876.72;5114194;28;20087;-60
2022/10/03 11:34:41;;;;;;;5.22;1.58;;;;;;;19.13;59.19;100873.22;5114037;28;20084;-59
2022/10/03 11:37:26;;;;;;;5.65;1.55;;;;;;;19.59;59.98;100869.81;5114067;28;20465;-60
2022/10/03 11:40:20;;;;;;;4.70;1.17;;;;;;;20.14;58.85;100866.44;5112841;28;20321;-60
2022/10/03 11:42:58;;;;;;;3.58;1.13;;;;;;;20.63;57.97;100869.66;5114303;28;20526;-61
2022/10/03 11:45:32;;;;;;;5.35;1.17;;;;;;;20.92;56.40;100869.09;5113851;28;20476;-61
2022/10/03 11:48:08;;;;;;;4.60;1.83;;;;;;;21.05;55.04;100868.09;5112713;28;20092;-61
2022/10/03 11:51:00;;;;;;;6.70;1.60;;;;;;;21.05;53.34;100863.56;5113716;28;20548;-61
2022/10/03 11:53:46;;;;;;;6.50;1.35;;;;;;;20.97;53.27;100871.38;5112742;28;20075;-59
2022/10/03 11:56:43;;;;;;;4.95;1.40;;;;;;;20.88;52.92;100869.47;5113924;28;20101;-63
2022/10/03 11:59:33;;;;;;;4.80;1.20;;;;;;;20.91;54.66;100866.56;5113959;28;20448;-60
2022/10/03 12:02:08;;;;;;;6.07;1.58;;;;;;;21.03;55.77;100867.34;5113697;28;20087;-62
2022/10/03 12:04:44;;;;;;;3.30;1.00;;;;;;;21.20;54.44;100876.66;5113470;28;20491;-63
2022/10/03 12:10:29;;;;;;;5.13;0.90;;;;;;;22.06;55.68;100861.34;5113207;28;20495;-59
2022/10/03 12:12:56;;;;;;;3.00;0.95;;;;;;;22.63;55.96;100864.34;5113563;28;20047;-60
2022/10/03 12:15:49;;;;;;;4.07;1.35;;;;;;;23.08;51.88;100863.91;5113281;28;20098;-59
2022/10/03 12:18:44;;;;;;;4.97;1.02;;;;;;;23.45;51.65;100865.00;5107728;28;20044;-60
2022/10/03 12:21:16;;;;;;;8.65;1.73;;;;;;;23.68;51.10;100852.06;5113367;28;20051;-59
2022/10/03 12:24:19;;;;;;;4.35;1.02;;;;;;;23.87;51.27;100855.66;5113167;28;20051;-60
2022/10/03 12:27:04;;;;;;;3.72;1.02;;;;;;;24.24;50.53;100857.50;5112071;28;20126;-61
2022/10/03 12:29:35;;;;;;;1.58;0.80;;;;;;;24.61;49.93;100853.03;5112631;28;20500;-59
2022/10/03 12:32:14;;;;;;;2.97;0.90;;;;;;;24.91;50.28;100855.50;5113165;28;20104;-59
2022/10/03 12:34:58;;;;;;;5.45;1.45;;;;;;;25.19;47.25;100860.78;5113216;28;20051;-60
2022/10/03 12:37:37;;;;;;;3.42;1.27;;;;;;;25.48;46.80;100854.22;5113324;28;20059;-61
2022/10/03 12:40:11;;;;;;;3.65;1.00;;;;;;;25.65;46.96;100844.44;5112417;28;20152;-59
2022/10/03 12:42:52;;;;;;;3.88;0.95;;;;;;;25.62;44.99;100845.59;5111486;28;20087;-61
2022/10/03 12:45:26;;;;;;;4.40;1.23;;;;;;;25.53;43.96;100846.50;5111340;28;20729;-61
2022/10/03 12:48:15;;;;;;;4.93;1.10;;;;;;;25.29;42.98;100852.59;5111640;28;20086;-61
2022/10/03 12:50:58;;;;;;;5.40;1.08;;;;;;;25.03;45.02;100846.19;5112563;28;20108;-61
2022/10/03 12:53:40;;;;;;;5.47;1.17;;;;;;;25.05;45.64;100841.50;5112641;28;20430;-61
2022/10/03 12:56:23;;;;;;;3.73;1.17;;;;;;;25.26;46.69;100839.44;5112874;28;20108;-62
2022/10/03 12:59:02;;;;;;;4.75;1.30;;;;;;;25.62;46.65;100839.34;5111002;28;20325;-59
2022/10/03 13:02:01;;;;;;;5.78;1.13;;;;;;;26.01;46.51;100830.75;5112320;28;20040;-60
2022/10/03 13:04:59;;;;;;;4.00;1.10;;;;;;;26.36;44.75;100837.97;5111958;28;20052;-60
2022/10/03 13:08:01;;;;;;;2.65;1.08;;;;;;;26.57;44.89;100842.91;5112241;28;20545;-60